sensor_id;sensor_type;location;lat;lon;timestamp;pressure;altitude;pressure_sealevel;temperature;humidity
47985;BME280;33753;52.912;-7.342;2023-03-04T00:02:13;102043.00;;;3.96;100.00
47985;BME280;33753;52.912;-7.342;2023-03-04T00:04:47;102054.56;;;3.96;100.00
47985;BME280;33753;52.912;-7.342;2023-03-04T00:07:15;102044.69;;;3.97;100.00
47985;BME280;33753;52.912;-7.342;2023-03-04T00:09:45;102039.34;;;3.97;100.00
47985;BME280;33753;52.912;-7.342;2023-03-04T00:12:15;102041.94;;;3.98;100.00
47985;BME280;33753;52.912;-7.342;2023-03-04T00:14:50;102047.47;;;3.95;100.00
47985;BME280;33753;52.912;-7.342;2023-03-04T00:17:18;102051.78;;;3.98;100.00
47985;BME280;33753;52.912;-7.342;2023-03-04T00:19:52;102054.56;;;3.96;100.00
47985;BME280;33753;52.912;-7.342;2023-03-04T00:22:23;102049.22;;;3.96;100.00
47985;BME280;33753;52.912;-7.342;2023-03-04T00:24:53;102051.88;;;3.96;100.00
47985;BME280;33753;52.912;-7.342;2023-03-04T00:27:24;102047.75;;;3.91;100.00
47985;BME280;33753;52.912;-7.342;2023-03-04T00:29:55;102054.75;;;3.93;100.00
47985;BME280;33753;52.912;-7.342;2023-03-04T00:32:27;102052.91;;;3.94;100.00
47985;BME280;33753;52.912;-7.342;2023-03-04T00:34:56;102054.75;;;3.93;100.00
47985;BME280;33753;52.912;-7.342;2023-03-04T00:37:24;102061.88;;;3.93;100.00
47985;BME280;33753;52.912;-7.342;2023-03-04T00:39:52;102061.97;;;3.91;100.00
47985;BME280;33753;52.912;-7.342;2023-03-04T00:42:20;102067.34;;;3.91;100.00
47985;BME280;33753;52.912;-7.342;2023-03-04T00:44:49;102065.63;;;3.90;100.00
47985;BME280;33753;52.912;-7.342;2023-03-04T00:47:19;102065.63;;;3.90;100.00
47985;BME280;33753;52.912;-7.342;2023-03-04T00:49:47;102069.91;;;3.93;100.00
47985;BME280;33753;52.912;-7.342;2023-03-04T00:52:15;102061.22;;;3.89;100.00
47985;BME280;33753;52.912;-7.342;2023-03-04T00:54:43;102061.31;;;3.88;100.00
47985;BME280;33753;52.912;-7.342;2023-03-04T00:57:12;102056.81;;;3.88;100.00
47985;BME280;33753;52.912;-7.342;2023-03-04T00:59:40;102065.63;;;3.90;100.00
47985;BME280;33753;52.912;-7.342;2023-03-04T01:02:09;102057.75;;;3.87;100.00
47985;BME280;33753;52.912;-7.342;2023-03-04T01:04:39;102055.06;;;3.87;100.00
47985;BME280;33753;52.912;-7.342;2023-03-04T01:07:07;102061.41;;;3.86;100.00
47985;BME280;33753;52.912;-7.342;2023-03-04T01:09:35;102060.63;;;3.84;100.00
47985;BME280;33753;52.912;-7.342;2023-03-04T01:12:04;102059.56;;;3.87;100.00
47985;BME280;33753;52.912;-7.342;2023-03-04T01:14:32;102064.09;;;3.86;100.00
47985;BME280;33753;52.912;-7.342;2023-03-04T01:17:00;102063.91;;;3.89;100.00
47985;BME280;33753;52.912;-7.342;2023-03-04T01:19:28;102062.97;;;3.90;100.00
47985;BME280;33753;52.912;-7.342;2023-03-04T01:21:59;102071.00;;;3.90;100.00
47985;BME280;33753;52.912;-7.342;2023-03-04T01:24:27;102071.00;;;3.90;100.00
47985;BME280;33753;52.912;-7.342;2023-03-04T01:26:56;102069.16;;;3.91;100.00
47985;BME280;33753;52.912;-7.342;2023-03-04T01:29:24;102067.34;;;3.91;100.00
47985;BME280;33753;52.912;-7.342;2023-03-04T01:31:55;102063.72;;;3.92;100.00
47985;BME280;33753;52.912;-7.342;2023-03-04T01:34:24;102071.84;;;3.91;100.00
47985;BME280;33753;52.912;-7.342;2023-03-04T01:36:52;102068.22;;;3.92;100.00
47985;BME280;33753;52.912;-7.342;2023-03-04T01:39:21;102075.22;;;3.94;100.00
47985;BME280;33753;52.912;-7.342;2023-03-04T01:41:50;102073.47;;;3.93;100.00
47985;BME280;33753;52.912;-7.342;2023-03-04T01:44:18;102078.75;;;3.95;100.00
47985;BME280;33753;52.912;-7.342;2023-03-04T01:46:47;102084.94;;;3.95;100.00
47985;BME280;33753;52.912;-7.342;2023-03-04T01:49:16;102072.53;;;3.94;100.00
47985;BME280;33753;52.912;-7.342;2023-03-04T01:51:45;102077.91;;;3.94;100.00
47985;BME280;33753;52.912;-7.342;2023-03-04T01:54:15;102067.34;;;3.91;100.00
47985;BME280;33753;52.912;-7.342;2023-03-04T01:56:46;102071.00;;;3.90;100.00
47985;BME280;33753;52.912;-7.342;2023-03-04T01:59:17;102065.63;;;3.90;100.00
47985;BME280;33753;52.912;-7.342;2023-03-04T02:01:46;102063.91;;;3.89;100.00
47985;BME280;33753;52.912;-7.342;2023-03-04T02:04:15;102064.09;;;3.86;100.00
47985;BME280;33753;52.912;-7.342;2023-03-04T02:06:44;102058.72;;;3.86;100.00
47985;BME280;33753;52.912;-7.342;2023-03-04T02:09:13;102060.44;;;3.87;100.00
47985;BME280;33753;52.912;-7.342;2023-03-04T02:11:42;102062.16;;;3.88;100.00
47985;BME280;33753;52.912;-7.342;2023-03-04T02:14:12;102062.16;;;3.88;100.00
47985;BME280;33753;52.912;-7.342;2023-03-04T02:16:42;102061.31;;;3.88;100.00
47985;BME280;33753;52.912;-7.342;2023-03-04T02:19:11;102059.56;;;3.87;100.00
47985;BME280;33753;52.912;-7.342;2023-03-04T02:21:41;102061.31;;;3.88;100.00
47985;BME280;33753;52.912;-7.342;2023-03-04T02:24:11;102062.16;;;3.88;100.00
47985;BME280;33753;52.912;-7.342;2023-03-04T02:26:44;102061.22;;;3.89;100.00
47985;BME280;33753;52.912;-7.342;2023-03-04T02:29:13;102067.44;;;3.90;100.00
47985;BME280;33753;52.912;-7.342;2023-03-04T02:31:43;102055.88;;;3.89;100.00
47985;BME280;33753;52.912;-7.342;2023-03-04T02:34:12;102062.97;;;3.90;100.00
47985;BME280;33753;52.912;-7.342;2023-03-04T02:36:41;102060.44;;;3.87;100.00
47985;BME280;33753;52.912;-7.342;2023-03-04T02:39:11;102066.75;;;3.86;100.00
47985;BME280;33753;52.912;-7.342;2023-03-04T02:41:40;102053.56;;;3.83;100.00
47985;BME280;33753;52.912;-7.342;2023-03-04T02:44:16;102050.00;;;3.83;100.00
47985;BME280;33753;52.912;-7.342;2023-03-04T02:46:44;102055.25;;;3.84;100.00
47985;BME280;33753;52.912;-7.342;2023-03-04T02:49:13;102048.22;;;3.83;100.00
47985;BME280;33753;52.912;-7.342;2023-03-04T02:51:41;102047.22;;;3.84;100.00
47985;BME280;33753;52.912;-7.342;2023-03-04T02:54:13;102039.38;;;3.81;100.00
47985;BME280;33753;52.912;-7.342;2023-03-04T02:56:45;102046.56;;;3.80;100.00
47985;BME280;33753;52.912;-7.342;2023-03-04T02:59:16;102041.97;;;3.83;100.00
47985;BME280;33753;52.912;-7.342;2023-03-04T03:01:44;102044.66;;;3.83;100.00
47985;BME280;33753;52.912;-7.342;2023-03-04T03:04:13;102044.56;;;3.84;100.00
47985;BME280;33753;52.912;-7.342;2023-03-04T03:06:43;102044.56;;;3.84;100.00
47985;BME280;33753;52.912;-7.342;2023-03-04T03:09:12;102046.28;;;3.85;100.00
47985;BME280;33753;52.912;-7.342;2023-03-04T03:11:40;102042.66;;;3.86;100.00
47985;BME280;33753;52.912;-7.342;2023-03-04T03:14:08;102047.13;;;3.86;100.00
47985;BME280;33753;52.912;-7.342;2023-03-04T03:16:38;102041.97;;;3.83;100.00
47985;BME280;33753;52.912;-7.342;2023-03-04T03:19:06;102037.50;;;3.83;100.00
47985;BME280;33753;52.912;-7.342;2023-03-04T03:21:35;102028.59;;;3.83;100.00
47985;BME280;33753;52.912;-7.342;2023-03-04T03:24:03;102037.50;;;3.83;100.00
47985;BME280;33753;52.912;-7.342;2023-03-04T03:26:32;102033.84;;;3.84;100.00
47985;BME280;33753;52.912;-7.342;2023-03-04T03:29:00;102025.91;;;3.83;100.00
47985;BME280;33753;52.912;-7.342;2023-03-04T03:31:28;102025.25;;;3.79;100.00
47985;BME280;33753;52.912;-7.342;2023-03-04T03:33:58;102025.25;;;3.79;100.00
47985;BME280;33753;52.912;-7.342;2023-03-04T03:36:26;102016.50;;;3.75;100.00
47985;BME280;33753;52.912;-7.342;2023-03-04T03:38:55;102020.06;;;3.76;100.00
47985;BME280;33753;52.912;-7.342;2023-03-04T03:41:24;102018.34;;;3.75;100.00
47985;BME280;33753;52.912;-7.342;2023-03-04T03:43:52;102016.78;;;3.71;100.00
47985;BME280;33753;52.912;-7.342;2023-03-04T03:46:20;102015.06;;;3.70;100.00
47985;BME280;33753;52.912;-7.342;2023-03-04T03:48:48;102013.50;;;3.66;100.00
47985;BME280;33753;52.912;-7.342;2023-03-04T03:51:18;102019.03;;;3.62;100.00
47985;BME280;33753;52.912;-7.342;2023-03-04T03:53:46;102020.75;;;3.63;100.00
47985;BME280;33753;52.912;-7.342;2023-03-04T03:56:14;102025.94;;;3.67;100.00
47985;BME280;33753;52.912;-7.342;2023-03-04T03:58:42;102027.56;;;3.69;100.00
47985;BME280;33753;52.912;-7.342;2023-03-04T04:01:10;102024.06;;;3.69;100.00
47985;BME280;33753;52.912;-7.342;2023-03-04T04:03:38;102022.31;;;3.68;100.00
47985;BME280;33753;52.912;-7.342;2023-03-04T04:06:06;102022.50;;;3.65;100.00
47985;BME280;33753;52.912;-7.342;2023-03-04T04:08:36;102029.41;;;3.69;100.00
47985;BME280;33753;52.912;-7.342;2023-03-04T04:11:04;102023.06;;;3.70;100.00
47985;BME280;33753;52.912;-7.342;2023-03-04T04:13:32;102022.31;;;3.68;100.00
47985;BME280;33753;52.912;-7.342;2023-03-04T04:16:04;102018.69;;;3.69;100.00
47985;BME280;33753;52.912;-7.342;2023-03-04T04:18:32;102020.59;;;3.67;100.00
47985;BME280;33753;52.912;-7.342;2023-03-04T04:21:00;102024.19;;;3.66;100.00
47985;BME280;33753;52.912;-7.342;2023-03-04T04:23:29;102021.53;;;3.66;100.00
47985;BME280;33753;52.912;-7.342;2023-03-04T04:25:58;102025.09;;;3.66;100.00
47985;BME280;33753;52.912;-7.342;2023-03-04T04:28:27;102024.38;;;3.62;100.00
47985;BME280;33753;52.912;-7.342;2023-03-04T04:30:55;102023.53;;;3.62;100.00
47985;BME280;33753;52.912;-7.342;2023-03-04T04:33:23;102019.22;;;3.59;100.00
47985;BME280;33753;52.912;-7.342;2023-03-04T04:35:51;102018.34;;;3.59;100.00
47985;BME280;33753;52.912;-7.342;2023-03-04T04:38:20;102021.78;;;3.61;100.00
47985;BME280;33753;52.912;-7.342;2023-03-04T04:40:48;102022.75;;;3.60;100.00
47985;BME280;33753;52.912;-7.342;2023-03-04T04:43:17;102021.78;;;3.61;100.00
47985;BME280;33753;52.912;-7.342;2023-03-04T04:45:45;102025.31;;;3.61;100.00
47985;BME280;33753;52.912;-7.342;2023-03-04T04:48:13;102030.00;;;3.58;100.00
47985;BME280;33753;52.912;-7.342;2023-03-04T04:50:41;102016.72;;;3.56;100.00
47985;BME280;33753;52.912;-7.342;2023-03-04T04:53:11;102021.28;;;3.54;100.00
47985;BME280;33753;52.912;-7.342;2023-03-04T04:55:39;102011.63;;;3.52;100.00
47985;BME280;33753;52.912;-7.342;2023-03-04T04:58:07;102016.19;;;3.50;100.00
47985;BME280;33753;52.912;-7.342;2023-03-04T05:00:37;102009.03;;;3.50;100.00
47985;BME280;33753;52.912;-7.342;2023-03-04T05:03:05;102015.53;;;3.46;100.00
47985;BME280;33753;52.912;-7.342;2023-03-04T05:05:33;102009.19;;;3.47;100.00
47985;BME280;33753;52.912;-7.342;2023-03-04T05:08:01;102007.50;;;3.46;100.00
47985;BME280;33753;52.912;-7.342;2023-03-04T05:10:29;102012.84;;;3.46;100.00
47985;BME280;33753;52.912;-7.342;2023-03-04T05:12:57;102014.72;;;3.44;100.00
47985;BME280;33753;52.912;-7.342;2023-03-04T05:15:26;102018.28;;;3.44;100.00
47985;BME280;33753;52.912;-7.342;2023-03-04T05:17:55;102018.19;;;3.46;100.00
47985;BME280;33753;52.912;-7.342;2023-03-04T05:20:24;102019.13;;;3.45;100.00
47985;BME280;33753;52.912;-7.342;2023-03-04T05:22:52;102019.41;;;3.40;100.00
47985;BME280;33753;52.912;-7.342;2023-03-04T05:25:20;102025.41;;;3.44;100.00
47985;BME280;33753;52.912;-7.342;2023-03-04T05:27:49;102022.75;;;3.44;100.00
47985;BME280;33753;52.912;-7.342;2023-03-04T05:30:17;102028.09;;;3.44;100.00
47985;BME280;33753;52.912;-7.342;2023-03-04T05:32:45;102034.25;;;3.46;100.00
47985;BME280;33753;52.912;-7.342;2023-03-04T05:35:15;102037.00;;;3.44;100.00
47985;BME280;33753;52.912;-7.342;2023-03-04T05:37:43;102040.63;;;3.43;100.00
47985;BME280;33753;52.912;-7.342;2023-03-04T05:40:11;102034.25;;;3.46;100.00
47985;BME280;33753;52.912;-7.342;2023-03-04T05:42:40;102044.75;;;3.49;100.00
47985;BME280;33753;52.912;-7.342;2023-03-04T05:45:08;102043.22;;;3.45;100.00
47985;BME280;33753;52.912;-7.342;2023-03-04T05:47:36;102038.72;;;3.45;100.00
47985;BME280;33753;52.912;-7.342;2023-03-04T05:50:05;102047.72;;;3.44;100.00
47985;BME280;33753;52.912;-7.342;2023-03-04T05:52:35;102047.63;;;3.46;100.00
47985;BME280;33753;52.912;-7.342;2023-03-04T05:55:03;102040.44;;;3.46;100.00
47985;BME280;33753;52.912;-7.342;2023-03-04T05:57:32;102041.38;;;3.45;100.00
47985;BME280;33753;52.912;-7.342;2023-03-04T06:00:00;102043.03;;;3.48;100.00
47985;BME280;33753;52.912;-7.342;2023-03-04T06:02:38;102043.22;;;3.45;100.00
47985;BME280;33753;52.912;-7.342;2023-03-04T06:05:07;102042.41;;;3.43;100.00
47985;BME280;33753;52.912;-7.342;2023-03-04T06:07:37;102040.28;;;3.34;100.00
47985;BME280;33753;52.912;-7.342;2023-03-04T06:10:05;102037.41;;;3.37;100.00
47985;BME280;33753;52.912;-7.342;2023-03-04T06:12:34;102040.34;;;3.32;100.00
47985;BME280;33753;52.912;-7.342;2023-03-04T06:15:02;102034.91;;;3.34;100.00
47985;BME280;33753;52.912;-7.342;2023-03-04T06:17:31;102040.09;;;3.37;100.00
47985;BME280;33753;52.912;-7.342;2023-03-04T06:20:00;102033.00;;;3.36;100.00
47985;BME280;33753;52.912;-7.342;2023-03-04T06:22:28;102034.91;;;3.34;100.00
47985;BME280;33753;52.912;-7.342;2023-03-04T06:24:57;102026.81;;;3.35;100.00
47985;BME280;33753;52.912;-7.342;2023-03-04T06:27:26;102033.97;;;3.35;100.00
47985;BME280;33753;52.912;-7.342;2023-03-04T06:29:54;102033.19;;;3.33;100.00
47985;BME280;33753;52.912;-7.342;2023-03-04T06:32:22;102029.41;;;3.37;100.00
47985;BME280;33753;52.912;-7.342;2023-03-04T06:34:51;102028.72;;;3.33;100.00
47985;BME280;33753;52.912;-7.342;2023-03-04T06:37:19;102029.75;;;3.31;100.00
47985;BME280;33753;52.912;-7.342;2023-03-04T06:39:47;102027.84;;;3.33;100.00
47985;BME280;33753;52.912;-7.342;2023-03-04T06:42:17;102031.47;;;3.32;100.00
47985;BME280;33753;52.912;-7.342;2023-03-04T06:44:46;102033.19;;;3.33;100.00
47985;BME280;33753;52.912;-7.342;2023-03-04T06:47:15;102033.19;;;3.33;100.00
47985;BME280;33753;52.912;-7.342;2023-03-04T06:49:44;102032.34;;;3.32;100.00
47985;BME280;33753;52.912;-7.342;2023-03-04T06:52:12;102026.19;;;3.30;100.00
47985;BME280;33753;52.912;-7.342;2023-03-04T06:54:41;102030.59;;;3.31;100.00
47985;BME280;33753;52.912;-7.342;2023-03-04T06:57:09;102032.41;;;3.31;100.00
47985;BME280;33753;52.912;-7.342;2023-03-04T06:59:38;102029.75;;;3.31;100.00
47985;BME280;33753;52.912;-7.342;2023-03-04T07:02:08;102022.66;;;3.29;100.00
47985;BME280;33753;52.912;-7.342;2023-03-04T07:04:37;102020.34;;;3.23;100.00
47985;BME280;33753;52.912;-7.342;2023-03-04T07:07:06;102021.81;;;3.29;100.00
47985;BME280;33753;52.912;-7.342;2023-03-04T07:09:34;102030.69;;;3.29;100.00
47985;BME280;33753;52.912;-7.342;2023-03-04T07:12:03;102033.53;;;3.26;100.00
47985;BME280;33753;52.912;-7.342;2023-03-04T07:14:31;102034.38;;;3.27;100.00
47985;BME280;33753;52.912;-7.342;2023-03-04T07:17:00;102032.69;;;3.26;100.00
47985;BME280;33753;52.912;-7.342;2023-03-04T07:19:29;102039.72;;;3.27;100.00
47985;BME280;33753;52.912;-7.342;2023-03-04T07:21:57;102036.47;;;3.22;100.00
47985;BME280;33753;52.912;-7.342;2023-03-04T07:24:26;102038.78;;;3.28;100.00
47985;BME280;33753;52.912;-7.342;2023-03-04T07:26:54;102044.84;;;3.32;100.00
47985;BME280;33753;52.912;-7.342;2023-03-04T07:29:22;102044.06;;;3.29;100.00
47985;BME280;33753;52.912;-7.342;2023-03-04T07:31:51;102047.84;;;3.25;100.00
47985;BME280;33753;52.912;-7.342;2023-03-04T07:34:21;102046.72;;;3.29;100.00
47985;BME280;33753;52.912;-7.342;2023-03-04T07:36:49;102044.84;;;3.32;100.00
47985;BME280;33753;52.912;-7.342;2023-03-04T07:39:17;102042.19;;;3.32;100.00
47985;BME280;33753;52.912;-7.342;2023-03-04T07:41:45;102039.50;;;3.32;100.00
47985;BME280;33753;52.912;-7.342;2023-03-04T07:44:13;102046.72;;;3.29;100.00
47985;BME280;33753;52.912;-7.342;2023-03-04T07:46:41;102045.78;;;3.31;100.00
47985;BME280;33753;52.912;-7.342;2023-03-04T07:49:10;102049.59;;;3.26;100.00
47985;BME280;33753;52.912;-7.342;2023-03-04T07:51:40;102050.59;;;3.24;100.00
47985;BME280;33753;52.912;-7.342;2023-03-04T07:54:08;102051.22;;;3.29;100.00
47985;BME280;33753;52.912;-7.342;2023-03-04T07:56:37;102059.06;;;3.32;100.00
47985;BME280;33753;52.912;-7.342;2023-03-04T07:59:05;102066.16;;;3.33;100.00
47985;BME280;33753;52.912;-7.342;2023-03-04T08:01:34;102068.22;;;3.28;100.00
47985;BME280;33753;52.912;-7.342;2023-03-04T08:04:03;102067.19;;;3.31;100.00
47985;BME280;33753;52.912;-7.342;2023-03-04T08:06:32;102071.44;;;3.35;100.00
47985;BME280;33753;52.912;-7.342;2023-03-04T08:09:02;102075.75;;;3.37;100.00
47985;BME280;33753;52.912;-7.342;2023-03-04T08:11:31;102072.09;;;3.38;100.00
47985;BME280;33753;52.912;-7.342;2023-03-04T08:14:00;102066.84;;;3.37;100.00
47985;BME280;33753;52.912;-7.342;2023-03-04T08:16:28;102069.59;;;3.35;100.00
47985;BME280;33753;52.912;-7.342;2023-03-04T08:18:57;102072.19;;;3.37;100.00
47985;BME280;33753;52.912;-7.342;2023-03-04T08:21:27;102072.19;;;3.37;100.00
47985;BME280;33753;52.912;-7.342;2023-03-04T08:23:56;102075.66;;;3.39;100.00
47985;BME280;33753;52.912;-7.342;2023-03-04T08:26:26;102073.94;;;3.38;100.00
47985;BME280;33753;52.912;-7.342;2023-03-04T08:28:55;102073.75;;;3.41;100.00
47985;BME280;33753;52.912;-7.342;2023-03-04T08:31:23;102068.22;;;3.44;100.00
47985;BME280;33753;52.912;-7.342;2023-03-04T08:33:52;102071.69;;;3.46;100.00
47985;BME280;33753;52.912;-7.342;2023-03-04T08:36:20;102073.25;;;3.50;100.00
47985;BME280;33753;52.912;-7.342;2023-03-04T08:38:48;102071.34;;;3.52;100.00
47985;BME280;33753;52.912;-7.342;2023-03-04T08:41:17;102069.78;;;3.48;100.00
47985;BME280;33753;52.912;-7.342;2023-03-04T08:43:47;102074.97;;;3.51;100.00
47985;BME280;33753;52.912;-7.342;2023-03-04T08:46:15;102068.66;;;3.52;100.00
47985;BME280;33753;52.912;-7.342;2023-03-04T08:48:44;102071.16;;;3.55;100.00
47985;BME280;33753;52.912;-7.342;2023-03-04T08:51:13;102073.75;;;3.57;100.00
47985;BME280;33753;52.912;-7.342;2023-03-04T08:53:42;102067.53;;;3.56;100.00
47985;BME280;33753;52.912;-7.342;2023-03-04T08:56:13;102070.03;;;3.59;100.00
47985;BME280;33753;52.912;-7.342;2023-03-04T08:58:42;102072.63;;;3.61;100.00
47985;BME280;33753;52.912;-7.342;2023-03-04T09:01:12;102070.91;;;3.60;100.00
47985;BME280;33753;52.912;-7.342;2023-03-04T09:03:41;102072.22;;;3.69;100.00
47985;BME280;33753;52.912;-7.342;2023-03-04T09:06:11;102073.91;;;3.70;100.00
47985;BME280;33753;52.912;-7.342;2023-03-04T09:08:40;102066.59;;;3.73;100.00
47985;BME280;33753;52.912;-7.342;2023-03-04T09:11:09;102069.38;;;3.72;100.00
47985;BME280;33753;52.912;-7.342;2023-03-04T09:13:37;102069.94;;;3.77;100.00
47985;BME280;33753;52.912;-7.342;2023-03-04T09:16:07;102069.75;;;3.80;100.00
47985;BME280;33753;52.912;-7.342;2023-03-04T09:18:37;102070.75;;;3.79;100.00
47985;BME280;33753;52.912;-7.342;2023-03-04T09:21:06;102072.38;;;3.82;100.00
47985;BME280;33753;52.912;-7.342;2023-03-04T09:23:35;102070.56;;;3.82;100.00
47985;BME280;33753;52.912;-7.342;2023-03-04T09:26:12;102067.69;;;3.85;100.00
47985;BME280;33753;52.912;-7.342;2023-03-04T09:28:40;102066.50;;;3.91;100.00
47985;BME280;33753;52.912;-7.342;2023-03-04T09:31:11;102070.91;;;3.92;100.00
47985;BME280;33753;52.912;-7.342;2023-03-04T09:33:41;102058.38;;;3.92;100.00
47985;BME280;33753;52.912;-7.342;2023-03-04T09:36:10;102055.16;;;3.86;100.00
47985;BME280;33753;52.912;-7.342;2023-03-04T09:38:39;102056.47;;;3.94;100.00
47985;BME280;33753;52.912;-7.342;2023-03-04T09:41:08;102054.75;;;3.93;100.00
47985;BME280;33753;52.912;-7.342;2023-03-04T09:43:37;102050.94;;;3.97;100.00
47985;BME280;33753;52.912;-7.342;2023-03-04T09:46:07;102046.53;;;3.96;100.00
47985;BME280;33753;52.912;-7.342;2023-03-04T09:48:39;102041.94;;;3.98;100.00
47985;BME280;33753;52.912;-7.342;2023-03-04T09:51:16;102045.22;;;4.04;100.00
47985;BME280;33753;52.912;-7.342;2023-03-04T09:53:47;102040.56;;;4.07;100.00
47985;BME280;33753;52.912;-7.342;2023-03-04T09:56:16;102044.09;;;4.08;100.00
47985;BME280;33753;52.912;-7.342;2023-03-04T09:58:46;102033.97;;;4.13;100.00
47985;BME280;33753;52.912;-7.342;2023-03-04T10:01:19;102028.25;;;4.19;100.00
47985;BME280;33753;52.912;-7.342;2023-03-04T10:03:50;102029.78;;;4.23;100.00
47985;BME280;33753;52.912;-7.342;2023-03-04T10:06:21;102029.78;;;4.23;100.00
47985;BME280;33753;52.912;-7.342;2023-03-04T10:08:51;102021.75;;;4.23;100.00
47985;BME280;33753;52.912;-7.342;2023-03-04T10:11:23;102027.59;;;4.30;100.00
47985;BME280;33753;52.912;-7.342;2023-03-04T10:13:55;102033.03;;;4.28;100.00
47985;BME280;33753;52.912;-7.342;2023-03-04T10:16:25;102024.75;;;4.33;100.00
47985;BME280;33753;52.912;-7.342;2023-03-04T10:18:57;102024.38;;;4.39;100.00
47985;BME280;33753;52.912;-7.342;2023-03-04T10:21:30;102016.06;;;4.44;100.00
47985;BME280;33753;52.912;-7.342;2023-03-04T10:24:00;102021.41;;;4.44;100.00
47985;BME280;33753;52.912;-7.342;2023-03-04T10:26:29;102021.22;;;4.47;100.00
47985;BME280;33753;52.912;-7.342;2023-03-04T10:28:59;102025.03;;;4.43;100.00
47985;BME280;33753;52.912;-7.342;2023-03-04T10:31:33;102022.75;;;4.51;100.00
47985;BME280;33753;52.912;-7.342;2023-03-04T10:34:02;102026.56;;;4.47;100.00
47985;BME280;33753;52.912;-7.342;2023-03-04T10:39:20;102022.38;;;4.57;100.00
47985;BME280;33753;52.912;-7.342;2023-03-04T10:41:57;102029.47;;;4.58;100.00
47985;BME280;33753;52.912;-7.342;2023-03-04T10:44:26;102020.28;;;4.62;100.00
47985;BME280;33753;52.912;-7.342;2023-03-04T10:46:55;102019.16;;;4.66;100.00
47985;BME280;33753;52.912;-7.342;2023-03-04T10:49:24;102022.59;;;4.68;100.00
47985;BME280;33753;52.912;-7.342;2023-03-04T10:51:53;102025.47;;;4.65;100.00
47985;BME280;33753;52.912;-7.342;2023-03-04T10:54:25;102030.47;;;4.72;100.00
47985;BME280;33753;52.912;-7.342;2023-03-04T10:56:56;102036.78;;;4.71;100.00
47985;BME280;33753;52.912;-7.342;2023-03-04T10:59:30;102029.88;;;4.81;100.00
47985;BME280;33753;52.912;-7.342;2023-03-04T11:01:59;102026.25;;;4.82;100.00
47985;BME280;33753;52.912;-7.342;2023-03-04T11:04:32;102026.03;;;4.85;100.00
47985;BME280;33753;52.912;-7.342;2023-03-04T11:07:01;102028.25;;;4.93;100.00
47985;BME280;33753;52.912;-7.342;2023-03-04T11:09:31;102027.56;;;5.04;100.00
47985;BME280;33753;52.912;-7.342;2023-03-04T11:11:59;102025.19;;;5.13;100.00
47985;BME280;33753;52.912;-7.342;2023-03-04T11:14:30;102024.13;;;5.16;100.00
47985;BME280;33753;52.912;-7.342;2023-03-04T11:17:02;102025.09;;;5.15;100.00
47985;BME280;33753;52.912;-7.342;2023-03-04T11:19:43;102020.09;;;5.23;100.00
47985;BME280;33753;52.912;-7.342;2023-03-04T11:22:14;102013.00;;;5.22;100.00
47985;BME280;33753;52.912;-7.342;2023-03-04T11:24:44;102014.25;;;5.16;100.00
47985;BME280;33753;52.912;-7.342;2023-03-04T11:27:16;102007.84;;;5.19;100.00
47985;BME280;33753;52.912;-7.342;2023-03-04T11:29:47;102011.94;;;5.25;100.00
47985;BME280;33753;52.912;-7.342;2023-03-04T11:32:19;102004.44;;;5.30;100.00
47985;BME280;33753;52.912;-7.342;2023-03-04T11:34:50;101997.81;;;5.35;100.00
47985;BME280;33753;52.912;-7.342;2023-03-04T11:37:21;102000.28;;;5.53;100.00
47985;BME280;33753;52.912;-7.342;2023-03-04T11:39:51;101996.25;;;5.60;100.00
47985;BME280;33753;52.912;-7.342;2023-03-04T11:42:27;101993.66;;;5.71;100.00
47985;BME280;33753;52.912;-7.342;2023-03-04T11:44:58;101991.56;;;5.77;100.00
47985;BME280;33753;52.912;-7.342;2023-03-04T11:47:36;101989.66;;;5.79;100.00
47985;BME280;33753;52.912;-7.342;2023-03-04T11:50:15;101989.66;;;5.79;100.00
47985;BME280;33753;52.912;-7.342;2023-03-04T11:52:53;101987.28;;;5.87;100.00
47985;BME280;33753;52.912;-7.342;2023-03-04T11:55:30;101981.16;;;5.85;100.00
47985;BME280;33753;52.912;-7.342;2023-03-04T11:58:05;101972.16;;;5.86;100.00
47985;BME280;33753;52.912;-7.342;2023-03-04T12:00:42;101971.72;;;5.92;100.00
47985;BME280;33753;52.912;-7.342;2023-03-04T12:03:15;101970.56;;;5.96;100.00
47985;BME280;33753;52.912;-7.342;2023-03-04T12:05:50;101971.13;;;6.01;100.00
47985;BME280;33753;52.912;-7.342;2023-03-04T12:08:38;101969.66;;;6.10;100.00
47985;BME280;33753;52.912;-7.342;2023-03-04T12:11:13;101973.19;;;6.11;100.00
47985;BME280;33753;52.912;-7.342;2023-03-04T12:13:48;101971.25;;;6.13;100.00
47985;BME280;33753;52.912;-7.342;2023-03-04T12:16:22;101960.59;;;5.98;100.00
47985;BME280;33753;52.912;-7.342;2023-03-04T12:18:57;101961.72;;;5.94;100.00
47985;BME280;33753;52.912;-7.342;2023-03-04T12:21:34;101962.13;;;6.02;100.00
47985;BME280;33753;52.912;-7.342;2023-03-04T12:24:17;101956.63;;;6.04;100.00
47985;BME280;33753;52.912;-7.342;2023-03-04T12:26:53;101957.69;;;6.01;100.00
47985;BME280;33753;52.912;-7.342;2023-03-04T12:29:24;101950.75;;;6.12;100.00
47985;BME280;33753;52.912;-7.342;2023-03-04T12:31:58;101950.44;;;6.16;100.00
47985;BME280;33753;52.912;-7.342;2023-03-04T12:37:37;101947.88;;;6.40;100.00
47985;BME280;33753;52.912;-7.342;2023-03-04T12:40:21;101940.63;;;6.54;100.00
47985;BME280;33753;52.912;-7.342;2023-03-04T12:42:57;101936.88;;;6.56;100.00
47985;BME280;33753;52.912;-7.342;2023-03-04T12:45:29;101926.34;;;6.66;100.00
47985;BME280;33753;52.912;-7.342;2023-03-04T12:48:00;101923.78;;;6.52;100.00
47985;BME280;33753;52.912;-7.342;2023-03-04T12:50:32;101922.56;;;6.69;100.00
47985;BME280;33753;52.912;-7.342;2023-03-04T12:53:07;101908.03;;;6.71;100.00
47985;BME280;33753;52.912;-7.342;2023-03-04T12:55:41;101910.19;;;6.66;100.00
47985;BME280;33753;52.912;-7.342;2023-03-04T12:58:13;101909.31;;;6.66;100.00
47985;BME280;33753;52.912;-7.342;2023-03-04T13:00:45;101909.78;;;6.47;100.00